Time;durP1;ratioP1;P1;durP2;ratioP2;P2;SDS_P1;SDS_P2;PMS_P1;PMS_P2;Temp;Humidity;BMP_temperature;BMP_pressure;BME280_temperature;BME280_humidity;BME280_pressure;Samples;Min_cycle;Max_cycle;Signal;HPM_P1;HPM_P2
2022/07/27 05:41:37;;;;;;;4.82;3.97;;;;;;;22.03;56.35;100218.34;6218975;27;20078;-90
2022/07/27 05:44:39;;;;;;;4.07;3.50;;;;;;;22.20;54.47;100218.28;5332460;33;32394;-88
2022/07/27 05:47:49;;;;;;;4.18;3.70;;;;;;;22.33;53.73;100225.25;5434607;27;32303;-85
2022/07/27 05:50:52;;;;;;;4.30;3.75;;;;;;;22.47;52.82;100228.41;5376873;33;33174;-88
2022/07/27 05:53:55;;;;;;;5.18;3.80;;;;;;;22.62;52.85;100226.63;5366905;33;33752;-87
2022/07/27 05:56:58;;;;;;;3.50;3.20;;;;;;;22.78;52.72;100227.56;5377432;27;34350;-87
2022/07/27 06:00:00;;;;;;;3.58;3.20;;;;;;;22.87;51.65;100227.91;5364102;33;32905;-87
2022/07/27 06:03:12;;;;;;;4.65;3.55;;;;;;;22.83;51.34;100235.03;5363483;33;33533;-87
2022/07/27 06:09:37;;;;;;;3.87;2.95;;;;;;;23.15;51.14;100248.75;5375897;27;33325;-86
2022/07/27 06:12:42;;;;;;;3.37;2.97;;;;;;;23.21;49.29;100244.13;5392362;27;33593;-87
2022/07/27 06:15:45;;;;;;;3.45;3.15;;;;;;;23.25;49.05;100240.59;5425448;27;34857;-87
2022/07/27 06:18:48;;;;;;;3.67;2.92;;;;;;;23.39;49.38;100251.09;5424472;27;34053;-87
2022/07/27 06:21:51;;;;;;;4.12;2.70;;;;;;;23.60;49.16;100255.59;5368059;33;32015;-87
2022/07/27 06:24:56;;;;;;;2.65;2.33;;;;;;;23.68;47.19;100257.84;5368810;33;32058;-87
2022/07/27 06:27:58;;;;;;;3.72;2.83;;;;;;;23.69;47.55;100264.16;5391925;27;33265;-87
2022/07/27 06:31:04;;;;;;;3.22;2.20;;;;;;;23.81;46.75;100263.97;5401630;27;33190;-87
2022/07/27 06:34:08;;;;;;;3.25;2.80;;;;;;;23.93;45.57;100256.34;5387900;33;32999;-87
2022/07/27 06:37:13;;;;;;;2.83;2.45;;;;;;;24.00;45.82;100254.16;5391342;27;34934;-87
2022/07/27 06:40:41;;;;;;;3.17;2.72;;;;;;;23.85;45.92;100260.41;5406663;27;34797;-87
2022/07/27 06:43:44;;;;;;;2.67;2.47;;;;;;;24.18;45.93;100259.16;5355355;33;32904;-87
2022/07/27 06:46:47;;;;;;;4.55;2.33;;;;;;;24.35;45.07;100255.34;5419253;27;34821;-88
2022/07/27 06:49:50;;;;;;;2.62;2.42;;;;;;;24.42;44.26;100258.66;5433509;27;34887;-88
2022/07/27 06:52:55;;;;;;;4.78;2.45;;;;;;;24.39;43.90;100261.94;5382596;33;33373;-87
2022/07/27 06:56:04;;;;;;;2.83;2.53;;;;;;;24.38;44.21;100257.56;5381854;33;35325;-87
2022/07/27 06:59:06;;;;;;;3.58;2.67;;;;;;;24.48;44.22;100260.34;5380865;27;32450;-87
2022/07/27 07:02:12;;;;;;;3.72;3.03;;;;;;;24.61;44.38;100257.06;5411588;27;34623;-88
2022/07/27 07:05:27;;;;;;;3.03;2.37;;;;;;;24.72;44.18;100257.91;5350567;33;35126;-87
2022/07/27 07:08:51;;;;;;;3.15;2.20;;;;;;;25.00;43.64;100255.69;5365420;27;32724;-87
2022/07/27 07:11:56;;;;;;;2.83;2.58;;;;;;;24.93;42.40;100263.41;5414621;27;33317;-86
2022/07/27 07:19:01;;;;;;;3.75;2.62;;;;;;;25.01;42.21;100265.59;5077028;31;20128;-87
2022/07/27 07:22:04;;;;;;;4.72;2.42;;;;;;;25.15;42.47;100254.88;5367646;27;33683;-87
2022/07/27 07:25:10;;;;;;;4.05;2.20;;;;;;;25.31;42.26;100257.31;5363164;33;35043;-87
2022/07/27 07:28:13;;;;;;;2.92;2.40;;;;;;;25.58;40.68;100253.41;5363279;33;34254;-87
2022/07/27 07:31:19;;;;;;;3.60;2.12;;;;;;;25.45;40.69;100243.78;5374569;27;33406;-86
2022/07/27 07:34:22;;;;;;;3.87;2.12;;;;;;;25.67;40.77;100242.59;5410129;27;34282;-87
2022/07/27 07:37:24;;;;;;;2.83;1.98;;;;;;;25.85;39.96;100244.75;5396062;28;34194;-86
2022/07/27 07:40:36;;;;;;;7.28;2.03;;;;;;;26.11;40.24;100242.69;5394292;27;35145;-87
2022/07/27 07:43:46;;;;;;;3.67;1.80;;;;;;;25.97;39.87;100238.91;5397723;27;33857;-87
2022/07/27 07:46:52;;;;;;;2.30;2.10;;;;;;;26.05;38.43;100240.25;5390936;28;33070;-86
2022/07/27 07:50:26;;;;;;;3.03;2.17;;;;;;;26.00;39.21;100236.44;5413138;27;33191;-86
2022/07/27 07:53:43;;;;;;;2.00;1.90;;;;;;;26.31;39.44;100230.72;5376025;27;32898;-86
2022/07/27 07:56:46;;;;;;;5.53;2.08;;;;;;;26.57;38.72;100231.41;5346821;33;31964;-86
2022/07/27 07:59:49;;;;;;;2.67;2.05;;;;;;;26.64;38.28;100223.59;5374026;27;33479;-86
2022/07/27 08:02:54;;;;;;;3.65;1.95;;;;;;;26.54;38.46;100228.38;5362374;33;33528;-86
2022/07/27 08:05:57;;;;;;;2.17;1.90;;;;;;;26.75;37.98;100229.03;5361206;33;33608;-87
2022/07/27 08:09:00;;;;;;;3.35;2.10;;;;;;;26.74;36.71;100224.66;5375142;27;33931;-87
2022/07/27 08:12:05;;;;;;;4.57;2.00;;;;;;;26.74;36.99;100225.47;5405709;27;33887;-87
2022/07/27 08:15:08;;;;;;;2.97;1.67;;;;;;;26.87;37.53;100216.50;5362523;33;33388;-86
2022/07/27 08:18:11;;;;;;;2.90;2.17;;;;;;;26.97;36.12;100215.59;5378751;27;33207;-87
2022/07/27 08:25:12;;;;;;;1.70;1.60;;;;;;;27.49;35.25;100208.41;5364183;33;32631;-87
2022/07/27 08:28:15;;;;;;;2.62;1.92;;;;;;;27.69;35.39;100207.31;5409483;27;33495;-87
2022/07/27 08:31:20;;;;;;;1.92;1.80;;;;;;;27.59;34.97;100208.28;5410742;27;33750;-87
2022/07/27 08:34:45;;;;;;;1.83;1.73;;;;;;;27.72;34.76;100215.03;5354548;33;32416;-87
2022/07/27 08:37:49;;;;;;;1.92;1.75;;;;;;;27.77;33.93;100214.97;5379088;27;34731;-87
2022/07/27 08:40:54;;;;;;;2.65;1.85;;;;;;;27.86;33.61;100211.59;5367248;33;34884;-89
2022/07/27 08:43:59;;;;;;;3.42;2.53;;;;;;;27.86;33.93;100206.06;5363609;33;34811;-89
2022/07/27 08:47:03;;;;;;;2.78;2.58;;;;;;;28.08;33.40;100199.91;5364568;33;33538;-87
2022/07/27 08:50:22;;;;;;;2.90;2.30;;;;;;;27.91;33.26;100195.75;5363902;33;34155;-88
2022/07/27 08:53:25;;;;;;;3.33;2.78;;;;;;;27.86;33.76;100194.97;5367940;33;33970;-87
2022/07/27 08:56:48;;;;;;;3.20;2.90;;;;;;;28.06;33.23;100202.19;5350008;33;32297;-87
2022/07/27 08:59:53;;;;;;;4.60;2.67;;;;;;;27.93;32.98;100190.72;5363232;33;33529;-87
2022/07/27 09:02:56;;;;;;;3.95;3.28;;;;;;;27.80;33.56;100189.50;5363982;33;33343;-87
2022/07/27 09:06:00;;;;;;;3.58;2.80;;;;;;;28.15;33.19;100187.38;5363054;33;33471;-87
2022/07/27 09:09:03;;;;;;;3.42;3.12;;;;;;;28.16;33.02;100183.47;5362608;33;33399;-87
2022/07/27 09:12:08;;;;;;;3.40;3.10;;;;;;;28.21;32.72;100182.56;5349492;33;32008;-88
2022/07/27 09:15:13;;;;;;;4.82;3.53;;;;;;;28.16;32.24;100180.69;5364690;33;33728;-87
2022/07/27 09:18:19;;;;;;;3.75;3.35;;;;;;;28.17;32.20;100179.59;5340578;33;33785;-85
2022/07/27 09:21:24;;;;;;;12.63;4.20;;;;;;;28.25;34.80;100175.31;5364396;33;33167;-86
2022/07/27 09:24:28;;;;;;;6.28;3.90;;;;;;;28.79;32.13;100168.34;5352690;33;32839;-86
2022/07/27 09:27:52;;;;;;;4.50;3.70;;;;;;;29.11;32.21;100170.25;5364318;33;33677;-86
2022/07/27 09:31:04;;;;;;;4.37;3.70;;;;;;;28.81;30.56;100179.94;5363762;33;33953;-86
2022/07/27 09:34:07;;;;;;;3.85;3.45;;;;;;;28.98;31.07;100173.81;5366678;33;34891;-87
2022/07/27 09:37:11;;;;;;;4.62;3.72;;;;;;;29.08;31.22;100170.06;5355000;33;32561;-86
2022/07/27 09:40:16;;;;;;;6.20;4.15;;;;;;;28.95;29.97;100174.41;5354056;33;33121;-87
2022/07/27 09:43:27;;;;;;;7.45;4.45;;;;;;;29.29;29.28;100176.03;5369085;33;33649;-87
2022/07/27 09:46:50;;;;;;;8.20;5.07;;;;;;;29.70;29.08;100175.22;5355223;33;33646;-87
2022/07/27 09:50:16;;;;;;;6.60;5.32;;;;;;;29.81;28.41;100166.34;5372755;33;33559;-87
2022/07/27 09:53:21;;;;;;;8.15;5.75;;;;;;;29.77;27.38;100170.03;5366752;33;34332;-86
2022/07/27 09:56:44;;;;;;;7.85;6.07;;;;;;;29.72;27.22;100162.66;5364488;33;34156;-87
2022/07/27 09:59:47;;;;;;;7.10;6.40;;;;;;;29.92;26.71;100160.53;5366112;33;33401;-87
2022/07/27 10:02:52;;;;;;;9.88;7.35;;;;;;;30.49;25.91;100167.25;5365584;33;33980;-87
2022/07/27 10:05:59;;;;;;;8.82;7.03;;;;;;;30.30;24.41;100174.94;5365451;33;31656;-87
2022/07/27 10:09:02;;;;;;;9.43;6.95;;;;;;;30.42;24.68;100180.78;5379022;33;34458;-88
2022/07/27 10:12:05;;;;;;;8.48;6.28;;;;;;;30.22;23.79;100175.72;5379637;33;34838;-88
2022/07/27 10:15:09;;;;;;;9.45;6.97;;;;;;;30.18;24.60;100172.69;5372145;28;33165;-87
2022/07/27 10:18:19;;;;;;;9.05;5.97;;;;;;;30.63;25.54;100169.97;5352569;33;32375;-87
2022/07/27 10:21:27;;;;;;;6.62;5.57;;;;;;;30.60;23.93;100162.25;5365958;33;33345;-87
2022/07/27 10:24:35;;;;;;;10.55;5.45;;;;;;;30.97;24.32;100171.31;5410361;27;33734;-88
2022/07/27 10:27:37;;;;;;;7.72;5.00;;;;;;;31.44;23.14;100162.53;5366238;33;34273;-87
2022/07/27 10:30:40;;;;;;;5.62;4.85;;;;;;;31.47;23.40;100159.91;5366387;33;33767;-87
2022/07/27 10:33:52;;;;;;;6.82;4.95;;;;;;;31.80;22.96;100151.97;5368148;33;33596;-87
2022/07/27 10:36:54;;;;;;;6.95;4.60;;;;;;;31.83;21.89;100150.50;5373844;33;34455;-87
2022/07/27 10:43:28;;;;;;;5.15;4.40;;;;;;;31.68;21.54;100154.56;5355866;33;33614;-88
2022/07/27 10:46:31;;;;;;;5.10;3.53;;;;;;;31.96;21.19;100146.75;5350227;33;33068;-88
2022/07/27 10:49:34;;;;;;;5.45;3.62;;;;;;;32.34;21.33;100148.06;5364369;33;33870;-88
2022/07/27 10:52:44;;;;;;;4.18;3.67;;;;;;;32.52;20.99;100147.72;5366042;33;33553;-87
2022/07/27 10:55:48;;;;;;;3.85;3.50;;;;;;;32.57;20.60;100143.94;5364895;33;33266;-87
2022/07/27 10:58:51;;;;;;;5.32;3.42;;;;;;;32.70;20.63;100137.38;5364499;33;33408;-87
2022/07/27 11:01:56;;;;;;;3.05;2.75;;;;;;;33.28;19.65;100136.97;5349715;33;33883;-87
2022/07/27 11:05:03;;;;;;;3.35;3.05;;;;;;;33.66;19.89;100130.53;5352729;33;31877;-87
2022/07/27 11:08:06;;;;;;;3.33;3.03;;;;;;;33.91;19.44;100135.13;5368958;33;33561;-88
2022/07/27 11:11:33;;;;;;;4.25;3.60;;;;;;;34.08;18.48;100128.63;5362943;33;34197;-87
2022/07/27 11:14:42;;;;;;;6.60;3.90;;;;;;;34.40;19.43;100132.59;5366282;33;34090;-87
2022/07/27 11:17:48;;;;;;;3.78;3.45;;;;;;;34.20;18.69;100122.25;5354082;33;32314;-87
2022/07/27 11:21:17;;;;;;;4.40;3.55;;;;;;;35.09;18.70;100127.38;5351981;33;32584;-87
2022/07/27 11:24:27;;;;;;;3.53;3.20;;;;;;;35.36;18.31;100123.06;5370116;33;34324;-87
2022/07/27 11:27:30;;;;;;;3.62;3.33;;;;;;;35.03;18.37;100121.19;5366604;33;33634;-87
2022/07/27 11:30:33;;;;;;;3.40;3.10;;;;;;;35.28;18.64;100110.84;5356333;28;32155;-88
2022/07/27 11:33:48;;;;;;;2.85;2.62;;;;;;;35.75;17.80;100112.31;5334851;33;32147;-88
2022/07/27 11:36:51;;;;;;;5.65;3.30;;;;;;;36.44;17.51;100110.28;5348458;33;33698;-87
2022/07/27 11:39:59;;;;;;;3.50;2.72;;;;;;;37.49;16.85;100100.56;5404369;27;33719;-88
2022/07/27 11:43:53;;;;;;;3.25;2.80;;;;;;;38.31;16.11;100105.09;2417845;27;21799;-88
2022/07/27 11:47:02;;;;;;;5.18;2.50;;;;;;;39.10;14.73;100114.97;5344377;33;33161;-88
2022/07/27 11:50:07;;;;;;;3.05;2.60;;;;;;;39.56;14.38;100098.00;5335170;33;33517;-88
2022/07/27 11:53:21;;;;;;;3.12;2.83;;;;;;;40.26;13.73;100100.12;5346566;27;33479;-87
2022/07/27 11:56:26;;;;;;;3.58;2.50;;;;;;;39.91;14.18;100089.22;5342072;33;33574;-88
2022/07/27 11:59:37;;;;;;;2.62;2.42;;;;;;;40.69;13.51;100092.13;5338806;33;34926;-88
2022/07/27 12:02:50;;;;;;;2.60;2.15;;;;;;;41.46;13.34;100087.47;5348266;27;33996;-86
2022/07/27 12:06:20;;;;;;;6.20;2.10;;;;;;;42.41;12.34;100087.47;5386186;28;32201;-86
